Cucuta, Venezuela
Current Conditions -  °F | °C
As of 1:00 AM on Friday 28 Nov 2014 (Local Time) from SKCC Reporting Station
Light Fog Light Fog  
Wind Chill: 75°   Ceiling: Unl
Heat Index: 75°   Visibility: 6mi
Dew Point: 73°   Wind: 2mph
Humidity: 94%   Direction: NA
Pressure: 29.93"   Gusts: NA
Location:  7.9°N, 72.49°W
Report Text: SKCC 280500Z VRB02KT 9000 MIFG SCT017 SCT080 24/23 A2993
Loading
Personal Weather Stations






























Interactive Weather Map New forecast layout! Learn more

10-Day Weather Forecast

Advertisements
Track Severe Weather on mobile